Salt Wells, Nevada
Current Conditions -  °F | °C
As of 9:56 AM on Sunday 23 Nov 2014 (Local Time) from KNFL Reporting Station
Clear Clear  
Wind Chill: 36°   Ceiling: Unl
Heat Index: 40°   Visibility: 10mi
Dew Point: 27°   Wind: 6mph
Humidity: 60%   Direction: 150°SSE
Pressure: 30.4"   Gusts: NA
Location:  39.5809°N, 118.333°W
Report Text: KNFL 231756Z AUTO 15005KT 10SM CLR 04/M03 A3040 RMK AO2 SLP249 T00441028 10044 21056 51008
Loading
Personal Weather Stations






























Interactive Weather Map New forecast layout! Learn more

10-Day Weather Forecast

Advertisements
Track Severe Weather on mobile